Date,TemperatureHighF,TemperatureAvgF,TemperatureLowF,DewpointHighF,DewpointAvgF,DewpointLowF,HumidityHigh,HumidityAvg,HumidityLow,PressureMaxIn,PressureMinIn,WindSpeedMaxMPH,WindSpeedAvgMPH,GustSpeedMaxMPH,PrecipitationSumIn
2013-1-1,36,30,25,-100,-100,-100,0,0,100,0.00,40.00,0,-999,0,0.00
2013-1-2,38,30,26,-100,-100,-100,0,0,100,0.00,40.00,0,-999,0,0.00
2013-1-3,38,30,23,-100,-100,-100,0,0,100,0.00,40.00,0,-999,0,0.00
2013-1-4,40,36,34,-100,-100,-100,0,0,100,0.00,40.00,0,-999,0,0.21
2013-1-5,45,40,37,-100,-100,-100,0,0,100,0.00,40.00,0,-999,0,0.19
2013-1-6,45,41,38,-100,-100,-100,0,0,100,0.00,40.00,0,-999,0,0.12
2013-1-7,50,44,41,-100,-100,-100,0,0,100,0.00,40.00,0,-999,0,0.30
2013-1-8,50,42,38,-100,-100,-100,0,0,100,0.00,40.00,0,-999,0,0.98
2013-1-9,50,42,36,-100,-100,-100,0,0,100,0.00,40.00,0,-999,0,1.30
2013-1-10,43,35,28,-100,-100,-100,0,0,100,0.00,40.00,0,-999,0,0.17
2013-1-11,39,30,25,-100,-100,-100,0,0,100,0.00,40.00,0,-999,0,0.01
2013-1-12,35,26,21,-100,-100,-100,0,0,100,0.00,40.00,0,-999,0,0.00
2013-1-13,35,27,21,-100,-100,-100,0,0,100,0.00,40.00,0,-999,0,0.00
2013-1-14,35,33,30,-100,-100,-100,0,0,100,0.00,40.00,0,-999,0,0.00
2013-1-15,41,34,30,-100,-100,-100,0,0,100,0.00,40.00,0,-999,0,0.00
2013-1-16,42,32,27,-100,-100,-100,0,0,100,0.00,40.00,0,-999,0,0.00
2013-1-17,47,30,25,-100,-100,-100,0,0,100,0.00,40.00,0,-999,0,0.00
2013-1-18,37,31,27,-100,-100,-100,0,0,100,0.00,40.00,0,-999,0,0.00
2013-1-19,35,31,29,-100,-100,-100,0,0,100,0.00,40.00,0,-999,0,0.00
2013-1-20,45,32,25,-100,-100,-100,0,0,100,0.00,40.00,0,-999,0,0.00
2013-1-21,46,31,24,-100,-100,-100,0,0,100,0.00,40.00,0,-999,0,0.00
2013-1-22,38,32,26,-100,-100,-100,0,0,100,0.00,40.00,0,-999,0,0.00
2013-1-23,43,38,34,-100,-100,-100,0,0,100,0.00,40.00,0,-999,0,0.44
2013-1-24,44,40,35,-100,-100,-100,0,0,100,0.00,40.00,0,-999,0,0.14
2013-1-25,47,41,35,-100,-100,-100,0,0,100,0.00,40.00,0,-999,0,0.23
2013-1-26,42,37,33,-100,-100,-100,0,0,100,0.00,40.00,0,-999,0,0.33
2013-1-27,40,38,38,-100,-100,-100,0,0,100,0.00,40.00,0,-999,0,0.09
2013-1-28,40,38,36,-100,-100,-100,0,0,100,0.00,40.00,0,-999,0,0.17
2013-1-29,43,41,37,-100,-100,-100,0,0,100,0.00,40.00,0,-999,0,0.15
2013-1-30,49,45,43,-100,-100,-100,0,0,100,0.00,40.00,0,-999,0,0.15
2013-1-31,49,46,45,-100,-100,-100,0,0,100,0.00,40.00,0,-999,0,0.10
2013-2-1,51,45,38,-100,-100,-100,0,0,100,0.00,40.00,0,-999,0,0.01
2013-2-2,53,40,35,-100,-100,-100,0,0,100,0.00,40.00,0,-999,0,0.00
2013-2-3,46,42,40,-100,-100,-100,0,0,100,0.00,40.00,0,-999,0,0.10
2013-2-4,54,45,42,-100,-100,-100,0,0,100,0.00,40.00,0,-999,0,0.11
2013-2-5,52,47,42,-100,-100,-100,0,0,100,0.00,40.00,0,-999,0,0.07
2013-2-6,50,44,41,-100,-100,-100,0,0,100,0.00,40.00,0,-999,0,0.16
2013-2-7,50,42,33,-100,-100,-100,0,0,100,0.00,40.00,0,-999,0,0.17
2013-2-8,44,37,32,-100,-100,-100,0,0,100,0.00,40.00,0,-999,0,0.05
2013-2-9,46,40,32,-100,-100,-100,0,0,100,0.00,40.00,0,-999,0,0.01
2013-2-10,45,37,30,-100,-100,-100,0,0,100,0.00,40.00,0,-999,0,0.01
2013-2-11,45,41,39,-100,-100,-100,0,0,100,0.00,40.00,0,-999,0,0.01
2013-2-12,50,45,42,-100,-100,-100,0,0,100,0.00,40.00,0,-999,0,0.00
2013-2-13,51,45,37,-100,-100,-100,0,0,100,0.00,40.00,0,-999,0,0.00
2013-2-14,46,43,39,-100,-100,-100,0,0,100,0.00,40.00,0,-999,0,0.07
2013-2-15,56,42,34,-100,-100,-100,0,0,100,0.00,40.00,0,-999,0,0.02
2013-2-16,54,44,38,-100,-100,-100,0,0,100,0.00,40.00,0,-999,0,0.13
2013-2-17,47,42,38,-100,-100,-100,0,0,100,0.00,40.00,0,-999,0,0.03
2013-2-18,46,39,35,-100,-100,-100,0,0,100,0.00,40.00,0,-999,0,0.00
2013-2-19,51,38,31,-100,-100,-100,0,0,100,0.00,40.00,0,-999,0,0.00
2013-2-20,40,35,31,-100,-100,-100,0,0,100,0.00,40.00,0,-999,0,0.01
2013-2-21,42,40,34,-100,-100,-100,0,0,100,0.00,40.00,0,-999,0,0.07
2013-2-22,44,41,39,-100,-100,-100,0,0,100,0.00,40.00,0,-999,0,0.33
2013-2-23,51,42,38,-100,-100,-100,0,0,100,0.00,40.00,0,-999,0,0.02
2013-2-24,47,43,39,-100,-100,-100,0,0,100,0.00,40.00,0,-999,0,0.01
2013-2-25,46,41,39,-100,-100,-100,0,0,100,0.00,40.00,0,-999,0,0.67
2013-2-26,48,42,36,-100,-100,-100,0,0,100,0.00,40.00,0,-999,0,0.03
2013-2-27,48,42,37,-100,-100,-100,0,0,100,0.00,40.00,0,-999,0,0.04
2013-2-28,48,41,37,-100,-100,-100,0,0,100,0.00,40.00,0,-999,0,0.69
2013-3-1,57,53,48,-100,-100,-100,0,0,100,0.00,40.00,0,-999,0,0.75
2013-3-2,59,51,40,-100,-100,-100,0,0,100,0.00,40.00,0,-999,0,0.61
2013-3-3,47,40,33,-100,-100,-100,0,0,100,0.00,40.00,0,-999,0,0.15
2013-3-4,54,39,29,-100,-100,-100,0,0,100,0.00,40.00,0,-999,0,0.01
2013-3-5,50,42,35,-100,-100,-100,0,0,100,0.00,40.00,0,-999,0,0.00
2013-3-6,44,40,36,-100,-100,-100,0,0,100,0.00,40.00,0,-999,0,0.36
2013-3-7,47,42,39,-100,-100,-100,0,0,100,0.00,40.00,0,-999,0,0.34
2013-3-8,55,41,32,-100,-100,-100,0,0,100,0.00,40.00,0,-999,0,0.01
2013-3-9,56,41,31,-100,-100,-100,0,0,100,0.00,40.00,0,-999,0,0.00
2013-3-10,49,43,35,-100,-100,-100,0,0,100,0.00,40.00,0,-999,0,0.00
2013-3-11,53,43,34,-100,-100,-100,0,0,100,0.00,40.00,0,-999,0,0.02
2013-3-12,51,48,42,-100,-100,-100,0,0,100,0.00,40.00,0,-999,0,0.61
2013-3-13,55,51,48,-100,-100,-100,0,0,100,0.00,40.00,0,-999,0,0.65
2013-3-14,55,49,46,-100,-100,-100,0,0,100,0.00,40.00,0,-999,0,0.20
2013-3-15,60,51,45,-100,-100,-100,0,0,100,0.00,40.00,0,-999,0,0.37
2013-3-16,51,45,39,-100,-100,-100,0,0,100,0.00,40.00,0,-999,0,0.56
2013-3-17,50,42,38,-100,-100,-100,0,0,100,0.00,40.00,0,-999,0,0.13
2013-3-18,54,43,37,-100,-100,-100,0,0,100,0.00,40.00,0,-999,0,0.18
2013-3-19,52,42,34,-100,-100,-100,0,0,100,0.00,40.00,0,-999,0,0.09
2013-3-20,55,47,41,-100,-100,-100,0,0,100,0.00,40.00,0,-999,0,0.57
2013-3-21,51,41,32,-100,-100,-100,0,0,100,0.00,40.00,0,-999,0,0.02
2013-3-22,47,39,33,-100,-100,-100,0,0,100,0.00,40.00,0,-999,0,0.02
2013-3-23,50,38,32,-100,-100,-100,0,0,100,0.00,40.00,0,-999,0,0.00
2013-3-24,56,43,33,-100,-100,-100,0,0,100,0.00,40.00,0,-999,0,0.00
2013-3-25,62,47,38,-100,-100,-100,0,0,100,0.00,40.00,0,-999,0,0.00
2013-3-26,64,47,33,-100,-100,-100,0,0,100,0.00,40.00,0,-999,0,0.00
2013-3-27,63,48,36,-100,-100,-100,0,0,100,0.00,40.00,0,-999,0,0.00
2013-3-28,65,53,38,-100,-100,-100,0,0,100,0.00,40.00,0,-999,0,0.00
2013-3-29,67,52,42,-100,-100,-100,0,0,100,0.00,40.00,0,-999,0,0.00
2013-3-30,70,51,37,-100,-100,-100,0,0,100,0.00,40.00,0,-999,0,0.00
2013-3-31,74,53,36,-100,-100,-100,0,0,100,0.00,40.00,0,-999,0,0.00
2013-4-1,67,52,40,-100,-100,-100,0,0,100,0.00,40.00,0,-999,0,0.00
2013-4-2,58,51,44,-100,-100,-100,0,0,100,0.00,40.00,0,-999,0,0.00
2013-4-3,67,54,47,-100,-100,-100,0,0,100,0.00,40.00,0,-999,0,0.00
2013-4-4,57,52,46,-100,-100,-100,0,0,100,0.00,40.00,0,-999,0,0.21
2013-4-5,59,54,48,-100,-100,-100,0,0,100,0.00,40.00,0,-999,0,0.48
2013-4-6,58,50,42,-100,-100,-100,0,0,100,0.00,40.00,0,-999,0,0.70
2013-4-7,47,43,41,-100,-100,-100,0,0,100,0.00,40.00,0,-999,0,1.05
2013-4-8,53,46,43,-100,-100,-100,0,0,100,0.00,40.00,0,-999,0,0.02
2013-4-9,53,48,44,-100,-100,-100,0,0,100,0.00,40.00,0,-999,0,0.01
2013-4-10,57,52,46,-100,-100,-100,0,0,100,0.00,40.00,0,-999,0,0.47
2013-4-11,57,48,38,-100,-100,-100,0,0,100,0.00,40.00,0,-999,0,0.03
2013-4-12,45,42,39,-100,-100,-100,0,0,100,0.00,40.00,0,-999,0,0.09
2013-4-13,49,42,36,-100,-100,-100,0,0,100,0.00,40.00,0,-999,0,0.08
2013-4-14,60,44,38,-100,-100,-100,0,0,100,0.00,40.00,0,-999,0,0.08
2013-4-15,58,46,40,-100,-100,-100,0,0,100,0.00,40.00,0,-999,0,0.08
2013-4-16,61,46,33,-100,-100,-100,0,0,100,0.00,40.00,0,-999,0,0.01
2013-4-17,63,50,41,-100,-100,-100,0,0,100,0.00,40.00,0,-999,0,0.00
2013-4-18,54,48,44,-100,-100,-100,0,0,100,0.00,40.00,0,-999,0,0.23
2013-4-19,57,50,46,-100,-100,-100,0,0,100,0.00,40.00,0,-999,0,0.63
2013-4-20,55,49,46,-100,-100,-100,0,0,100,0.00,40.00,0,-999,0,0.20
2013-4-21,55,47,38,-100,-100,-100,0,0,100,0.00,40.00,0,-999,0,0.54
2013-4-22,64,47,32,-100,-100,-100,0,0,100,0.00,40.00,0,-999,0,0.07
2013-4-23,66,50,39,-100,-100,-100,0,0,100,0.00,40.00,0,-999,0,0.00
2013-4-24,70,54,39,-100,-100,-100,0,0,100,0.00,40.00,0,-999,0,0.00
2013-4-25,73,56,42,-100,-100,-100,0,0,100,0.00,40.00,0,-999,0,0.00
2013-4-26,68,57,48,-100,-100,-100,0,0,100,0.00,40.00,0,-999,0,0.00
2013-4-27,55,52,49,-100,-100,-100,0,0,100,0.00,40.00,0,-999,0,0.19
2013-4-28,57,49,41,-100,-100,-100,0,0,100,0.00,40.00,0,-999,0,0.09
2013-4-29,58,48,42,-100,-100,-100,0,0,100,0.00,40.00,0,-999,0,0.18
2013-4-30,60,50,42,-100,-100,-100,0,0,100,0.00,40.00,0,-999,0,0.01
2013-5-1,66,49,36,-100,-100,-100,0,0,100,0.00,40.00,0,-999,0,0.00
2013-5-2,67,53,41,-100,-100,-100,0,0,100,0.00,40.00,0,-999,0,0.00
2013-5-3,76,55,40,-100,-100,-100,0,0,100,0.00,40.00,0,-999,0,0.00
2013-5-4,83,62,42,-100,-100,-100,0,0,100,0.00,40.00,0,-999,0,0.00
2013-5-5,86,64,46,-100,-100,-100,0,0,100,0.00,40.00,0,-999,0,0.00
2013-5-6,89,70,54,-100,-100,-100,0,0,100,0.00,40.00,0,-999,0,0.00
2013-5-7,75,61,50,-100,-100,-100,0,0,100,0.00,40.00,0,-999,0,0.00
2013-5-8,70,57,49,-100,-100,-100,0,0,100,0.00,40.00,0,-999,0,0.00
2013-5-9,76,58,47,-100,-100,-100,0,0,100,0.00,40.00,0,-999,0,0.00
2013-5-10,77,62,48,-100,-100,-100,0,0,100,0.00,40.00,0,-999,0,0.00
2013-5-11,78,64,55,-100,-100,-100,0,0,100,0.00,40.00,0,-999,0,0.00
2013-5-12,67,60,55,-100,-100,-100,0,0,100,0.00,40.00,0,-999,0,0.93
2013-5-13,66,56,49,-100,-100,-100,0,0,100,0.00,40.00,0,-999,0,0.29
2013-5-14,68,54,47,-100,-100,-100,0,0,100,0.00,40.00,0,-999,0,0.05
2013-5-15,69,56,45,-100,-100,-100,0,0,100,0.00,40.00,0,-999,0,0.02
2013-5-16,73,59,51,-100,-100,-100,0,0,100,0.00,40.00,0,-999,0,0.05
2013-5-17,60,55,52,-100,-100,-100,0,0,100,0.00,40.00,0,-999,0,0.07
2013-5-18,67,55,50,-100,-100,-100,0,0,100,0.00,40.00,0,-999,0,0.20
2013-5-19,68,57,50,-100,-100,-100,0,0,100,0.00,40.00,0,-999,0,0.01
2013-5-20,70,57,47,-100,-100,-100,0,0,100,0.00,40.00,0,-999,0,0.00
2013-5-21,54,50,46,-100,-100,-100,0,0,100,0.00,40.00,0,-999,0,0.64
2013-5-22,58,51,46,-100,-100,-100,0,0,100,0.00,40.00,0,-999,0,0.12
2013-5-23,60,51,43,-100,-100,-100,0,0,100,0.00,40.00,0,-999,0,0.17
2013-5-24,71,53,43,-100,-100,-100,0,0,100,0.00,40.00,0,-999,0,0.01
2013-5-25,64,55,50,-100,-100,-100,0,0,100,0.00,40.00,0,-999,0,0.00
2013-5-26,59,53,49,-100,-100,-100,0,0,100,0.00,40.00,0,-999,0,0.60
2013-5-27,63,56,52,-100,-100,-100,0,0,100,0.00,40.00,0,-999,0,0.16
2013-5-28,59,56,50,-100,-100,-100,0,0,100,0.00,40.00,0,-999,0,0.05
2013-5-29,59,53,50,-100,-100,-100,0,0,100,0.00,40.00,0,-999,0,0.11
2013-5-30,51,50,49,-100,-100,-100,0,0,100,0.00,40.00,0,-999,0,0.12
2013-5-31,70,62,50,-100,-100,-100,0,0,100,0.00,40.00,0,-999,0,0.00
2013-6-1,68,58,49,-100,-100,-100,0,0,100,0.00,40.00,0,-999,0,0.00
2013-6-2,75,59,51,-100,-100,-100,0,0,100,0.00,40.00,0,-999,0,0.00
2013-6-3,79,59,49,-100,-100,-100,0,0,100,0.00,40.00,0,-999,0,0.00
2013-6-4,85,64,48,-100,-100,-100,0,0,100,0.00,40.00,0,-999,0,0.00
2013-6-5,79,65,56,-100,-100,-100,0,0,100,0.00,40.00,0,-999,0,0.00
2013-6-6,84,65,51,-100,-100,-100,0,0,100,0.00,40.00,0,-999,0,0.00
2013-6-7,73,62,56,-100,-100,-100,0,0,100,0.00,40.00,0,-999,0,0.00
2013-6-8,71,59,52,-100,-100,-100,0,0,100,0.00,40.00,0,-999,0,0.00
2013-6-9,75,61,51,-100,-100,-100,0,0,100,0.00,40.00,0,-999,0,0.00
2013-6-10,75,59,45,-100,-100,-100,0,0,100,0.00,40.00,0,-999,0,0.00
2013-6-11,72,57,53,-100,-100,-100,0,0,100,0.00,40.00,0,-999,0,0.00
2013-6-12,60,56,50,-100,-100,-100,0,0,100,0.00,40.00,0,-999,0,0.16
2013-6-13,73,58,50,-100,-100,-100,0,0,100,0.00,40.00,0,-999,0,0.03
2013-6-14,68,58,51,-100,-100,-100,0,0,100,0.00,40.00,0,-999,0,0.01
2013-6-15,80,61,47,-100,-100,-100,0,0,100,0.00,40.00,0,-999,0,0.01
2013-6-16,72,62,54,-100,-100,-100,0,0,100,0.00,40.00,0,-999,0,0.00
2013-6-17,79,64,53,-100,-100,-100,0,0,100,0.00,40.00,0,-999,0,0.00
2013-6-18,75,63,55,-100,-100,-100,0,0,100,0.00,40.00,0,-999,0,0.01
2013-6-19,63,58,54,-100,-100,-100,0,0,100,0.00,40.00,0,-999,0,0.03
2013-6-20,56,53,52,-100,-100,-100,0,0,100,0.00,40.00,0,-999,0,0.18
2013-6-22,80,69,57,-100,-100,-100,0,0,100,0.00,40.00,0,-999,0,0.00
2013-6-23,72,63,55,-100,-100,-100,0,0,100,0.00,40.00,0,-999,0,0.03
2013-6-24,67,61,57,-100,-100,-100,0,0,100,0.00,40.00,0,-999,0,0.05
2013-6-25,73,62,56,-100,-100,-100,0,0,100,0.00,40.00,0,-999,0,0.03
2013-6-26,72,63,57,-100,-100,-100,0,0,100,0.00,40.00,0,-999,0,0.01
2013-6-27,69,63,58,-100,-100,-100,0,0,100,0.00,40.00,0,-999,0,0.01
2013-6-28,82,68,56,-100,-100,-100,0,0,100,0.00,40.00,0,-999,0,0.01
2013-6-29,90,71,60,-100,-100,-100,0,0,100,0.00,40.00,0,-999,0,0.01
2013-6-30,98,75,60,-100,-100,-100,0,0,100,0.00,40.00,0,-999,0,0.01
2013-7-1,90,75,63,-100,-100,-100,0,0,100,0.00,40.00,0,-999,0,0.01
2013-7-2,85,71,63,-100,-100,-100,0,0,100,0.00,40.00,0,-999,0,0.01
2013-7-3,84,67,56,-100,-100,-100,0,0,100,0.00,40.00,0,-999,0,0.00
2013-7-4,77,65,55,-100,-100,-100,0,0,100,0.00,40.00,0,-999,0,0.00
2013-7-5,80,65,55,-100,-100,-100,0,0,100,0.00,40.00,0,-999,0,0.00
2013-7-6,83,62,53,-100,-100,-100,0,0,100,0.00,40.00,0,-999,0,0.00
2013-7-7,83,67,57,-100,-100,-100,0,0,100,0.00,40.00,0,-999,0,0.00
2013-7-8,82,63,56,-100,-100,-100,0,0,100,0.00,40.00,0,-999,0,0.00
2013-7-9,89,67,55,-100,-100,-100,0,0,100,0.00,40.00,0,-999,0,0.00
2013-7-10,78,65,58,-100,-100,-100,0,0,100,0.00,40.00,0,-999,0,0.00
2013-7-11,75,63,55,-100,-100,-100,0,0,100,0.00,40.00,0,-999,0,0.00
2013-7-12,76,61,50,-100,-100,-100,0,0,100,0.00,40.00,0,-999,0,0.00
2013-7-13,82,63,52,-100,-100,-100,0,0,100,0.00,40.00,0,-999,0,0.00
2013-7-14,84,64,51,-100,-100,-100,0,0,100,0.00,40.00,0,-999,0,0.00
2013-7-15,87,67,51,-100,-100,-100,0,0,100,0.00,40.00,0,-999,0,0.00
2013-7-16,92,71,53,-100,-100,-100,0,0,100,0.00,40.00,0,-999,0,0.00
2013-7-17,80,72,64,-100,-100,-100,0,0,100,0.00,40.00,0,-999,0,0.00
2013-7-18,83,71,62,-100,-100,-100,0,0,100,0.00,40.00,0,-999,0,0.00
2013-7-19,83,67,58,-100,-100,-100,0,0,100,0.00,40.00,0,-999,0,0.00
2013-7-20,77,65,57,-100,-100,-100,0,0,100,0.00,40.00,0,-999,0,0.00
2013-7-21,81,65,55,-100,-100,-100,0,0,100,0.00,40.00,0,-999,0,0.00
2013-7-22,85,67,58,-100,-100,-100,0,0,100,0.00,40.00,0,-999,0,0.00
2013-7-23,90,69,56,-100,-100,-100,0,0,100,0.00,40.00,0,-999,0,0.00
2013-7-24,83,67,56,-100,-100,-100,0,0,100,0.00,40.00,0,-999,0,0.00
2013-7-25,87,67,53,-100,-100,-100,0,0,100,0.00,40.00,0,-999,0,0.00
2013-7-26,86,66,54,-100,-100,-100,0,0,100,0.00,40.00,0,-999,0,0.00
2013-7-27,83,65,52,-100,-100,-100,0,0,100,0.00,40.00,0,-999,0,0.00
2013-7-28,81,64,52,-100,-100,-100,0,0,100,0.00,40.00,0,-999,0,0.00
2013-7-29,80,65,55,-100,-100,-100,0,0,100,0.00,40.00,0,-999,0,0.00
2013-7-30,80,64,54,-100,-100,-100,0,0,100,0.00,40.00,0,-999,0,0.00
2013-7-31,78,65,56,-100,-100,-100,0,0,100,0.00,40.00,0,-999,0,0.00
2013-8-1,70,64,57,-100,-100,-100,0,0,100,0.00,40.00,0,-999,0,0.04
2013-8-2,63,61,57,-100,-100,-100,0,0,100,0.00,40.00,0,-999,0,0.01
2013-8-3,75,65,58,-100,-100,-100,0,0,100,0.00,40.00,0,-999,0,0.01
2013-8-4,85,68,57,-100,-100,-100,0,0,100,0.00,40.00,0,-999,0,0.00
2013-8-5,88,69,56,-100,-100,-100,0,0,100,0.00,40.00,0,-999,0,0.00
2013-8-6,89,68,54,-100,-100,-100,0,0,100,0.00,40.00,0,-999,0,0.00
2013-8-7,89,69,55,-100,-100,-100,0,0,100,0.00,40.00,0,-999,0,0.00
2013-8-8,86,69,60,-100,-100,-100,0,0,100,0.00,40.00,0,-999,0,0.00
2013-8-9,88,67,55,-100,-100,-100,0,0,100,0.00,40.00,0,-999,0,0.00
2013-8-10,85,71,62,-100,-100,-100,0,0,100,0.00,40.00,0,-999,0,0.00
2013-8-11,78,66,59,-100,-100,-100,0,0,100,0.00,40.00,0,-999,0,0.00
2013-8-12,78,66,59,-100,-100,-100,0,0,100,0.00,40.00,0,-999,0,0.00
2013-8-13,83,68,59,-100,-100,-100,0,0,100,0.00,40.00,0,-999,0,0.00
2013-8-14,79,66,55,-100,-100,-100,0,0,100,0.00,40.00,0,-999,0,0.00
2013-8-15,70,66,63,-100,-100,-100,0,0,100,0.00,40.00,0,-999,0,0.00
2013-8-16,84,70,58,-100,-100,-100,0,0,100,0.00,40.00,0,-999,0,0.00
2013-8-17,78,69,61,-100,-100,-100,0,0,100,0.00,40.00,0,-999,0,0.00
2013-8-18,76,67,61,-100,-100,-100,0,0,100,0.00,40.00,0,-999,0,0.00
2013-8-19,73,65,61,-100,-100,-100,0,0,100,0.00,40.00,0,-999,0,0.00
2013-8-20,80,64,55,-100,-100,-100,0,0,100,0.00,40.00,0,-999,0,0.00
2013-8-21,87,64,50,-100,-100,-100,0,0,100,0.00,40.00,0,-999,0,0.00
2013-8-22,82,65,54,-100,-100,-100,0,0,100,0.00,40.00,0,-999,0,0.00
2013-8-23,80,68,63,-100,-100,-100,0,0,100,0.00,40.00,0,-999,0,0.00
2013-8-24,76,64,58,-100,-100,-100,0,0,100,0.00,40.00,0,-999,0,0.00
2013-8-25,75,63,51,-100,-100,-100,0,0,100,0.00,40.00,0,-999,0,0.00
2013-8-26,76,66,59,-100,-100,-100,0,0,100,0.00,40.00,0,-999,0,0.00
2013-8-27,73,64,59,-100,-100,-100,0,0,100,0.00,40.00,0,-999,0,0.00
2013-8-28,81,72,64,-100,-100,-100,0,0,100,0.00,40.00,0,-999,0,0.00
2013-8-29,72,67,63,-100,-100,-100,0,0,100,0.00,40.00,0,-999,0,0.00
2013-8-30,75,66,57,-100,-100,-100,0,0,100,0.00,40.00,0,-999,0,0.00
2013-8-31,81,63,52,-100,-100,-100,0,0,100,0.00,40.00,0,-999,0,0.00
2013-9-1,81,67,55,-100,-100,-100,0,0,100,0.00,40.00,0,-999,0,0.00
2013-9-2,82,68,60,-100,-100,-100,0,0,100,0.00,40.00,0,-999,0,0.00
2013-9-3,73,64,58,-100,-100,-100,0,0,100,0.00,40.00,0,-999,0,0.00
2013-9-4,74,64,58,-100,-100,-100,0,0,100,0.00,40.00,0,-999,0,0.00
2013-9-5,67,62,56,-100,-100,-100,0,0,100,0.00,40.00,0,-999,0,0.09
2013-9-6,69,64,61,-100,-100,-100,0,0,100,0.00,40.00,0,-999,0,0.40
2013-9-7,76,66,60,-100,-100,-100,0,0,100,0.00,40.00,0,-999,0,0.16
2013-9-8,78,66,57,-100,-100,-100,0,0,100,0.00,40.00,0,-999,0,0.01
2013-9-9,79,65,57,-100,-100,-100,0,0,100,0.00,40.00,0,-999,0,0.00
2013-9-10,85,65,54,-100,-100,-100,0,0,100,0.00,40.00,0,-999,0,0.00
2013-9-11,93,71,57,-100,-100,-100,0,0,100,0.00,40.00,0,-999,0,0.00
2013-9-12,85,70,60,-100,-100,-100,0,0,100,0.00,40.00,0,-999,0,0.00
2013-9-13,74,65,57,-100,-100,-100,0,0,100,0.00,40.00,0,-999,0,0.00
2013-9-14,72,64,59,-100,-100,-100,0,0,100,0.00,40.00,0,-999,0,0.00
2013-9-15,70,63,59,-100,-100,-100,0,0,100,0.00,40.00,0,-999,0,0.28
2013-9-16,64,61,58,-100,-100,-100,0,0,100,0.00,40.00,0,-999,0,0.54
2013-9-17,65,59,55,-100,-100,-100,0,0,100,0.00,40.00,0,-999,0,0.01
2013-9-18,57,56,54,-100,-100,-100,0,0,100,0.00,40.00,0,-999,0,0.00
2013-9-19,79,62,54,-100,-100,-100,0,0,100,0.00,40.00,0,-999,0,0.00
2013-9-20,76,60,49,-100,-100,-100,0,0,100,0.00,40.00,0,-999,0,0.00
2013-9-21,70,61,56,-100,-100,-100,0,0,100,0.00,40.00,0,-999,0,0.02
2013-9-22,61,56,54,-100,-100,-100,0,0,100,0.00,40.00,0,-999,0,0.39
2013-9-23,58,54,49,-100,-100,-100,0,0,100,0.00,40.00,0,-999,0,0.58
2013-9-24,60,53,49,-100,-100,-100,0,0,100,0.00,40.00,0,-999,0,0.11
2013-9-25,65,53,46,-100,-100,-100,0,0,100,0.00,40.00,0,-999,0,0.11
2013-9-26,65,51,41,-100,-100,-100,0,0,100,0.00,40.00,0,-999,0,0.00
2013-9-27,54,52,50,-100,-100,-100,0,0,100,0.00,40.00,0,-999,0,0.29
2013-9-28,59,54,51,-100,-100,-100,0,0,100,0.00,40.00,0,-999,0,0.85
2013-9-29,55,54,50,-100,-100,-100,0,0,100,0.00,40.00,0,-999,0,0.37
2013-9-30,54,50,48,-100,-100,-100,0,0,100,0.00,40.00,0,-999,0,0.61
2013-10-1,55,50,48,-100,-100,-100,0,0,100,0.00,40.00,0,-999,0,0.02
2013-10-2,52,49,45,-100,-100,-100,0,0,100,0.00,40.00,0,-999,0,0.46
2013-10-3,60,49,43,-100,-100,-100,0,0,100,0.00,40.00,0,-999,0,0.01
2013-10-4,61,51,40,-100,-100,-100,0,0,100,0.00,40.00,0,-999,0,0.00
2013-10-5,67,56,50,-100,-100,-100,0,0,100,0.00,40.00,0,-999,0,0.00
2013-10-6,74,58,45,-100,-100,-100,0,0,100,0.00,40.00,0,-999,0,0.00
2013-10-7,63,55,52,-100,-100,-100,0,0,100,0.00,40.00,0,-999,0,0.17
2013-10-8,55,49,42,-100,-100,-100,0,0,100,0.00,40.00,0,-999,0,0.33
2013-10-9,58,47,38,-100,-100,-100,0,0,100,0.00,40.00,0,-999,0,0.07
2013-10-10,57,51,44,-100,-100,-100,0,0,100,0.00,40.00,0,-999,0,0.00
2013-10-11,57,47,39,-100,-100,-100,0,0,100,0.00,40.00,0,-999,0,0.00
2013-10-12,61,49,42,-100,-100,-100,0,0,100,0.00,40.00,0,-999,0,0.00
2013-10-13,59,46,37,-100,-100,-100,0,0,100,0.00,40.00,0,-999,0,0.00
2013-10-14,60,46,37,-100,-100,-100,0,0,100,0.00,40.00,0,-999,0,0.00
2013-10-15,60,49,39,-100,-100,-100,0,0,100,0.00,40.00,0,-999,0,0.00
2013-10-16,60,49,43,-100,-100,-100,0,0,100,0.00,40.00,0,-999,0,0.00
2013-10-17,64,49,43,-100,-100,-100,0,0,100,0.00,40.00,0,-999,0,0.00
2013-10-18,63,48,39,-100,-100,-100,0,0,100,0.00,40.00,0,-999,0,0.00
2013-10-19,50,45,39,-100,-100,-100,0,0,100,0.00,40.00,0,-999,0,0.00
2013-10-20,53,48,43,-100,-100,-100,0,0,100,0.00,40.00,0,-999,0,0.00
2013-10-21,53,48,45,-100,-100,-100,0,0,100,0.00,40.00,0,-999,0,0.00
2013-10-22,57,48,44,-100,-100,-100,0,0,100,0.00,40.00,0,-999,0,0.00
2013-10-23,67,50,38,-100,-100,-100,0,0,100,0.00,40.00,0,-999,0,0.00
2013-10-24,65,46,38,-100,-100,-100,0,0,100,0.00,40.00,0,-999,0,0.00
2013-10-25,55,48,44,-100,-100,-100,0,0,100,0.00,40.00,0,-999,0,0.00
2013-10-26,57,50,43,-100,-100,-100,0,0,100,0.00,40.00,0,-999,0,0.00
2013-10-27,61,52,47,-100,-100,-100,0,0,100,0.00,40.00,0,-999,0,0.11
2013-10-28,59,52,41,-100,-100,-100,0,0,100,0.00,40.00,0,-999,0,0.04
2013-10-29,57,42,35,-100,-100,-100,0,0,100,0.00,40.00,0,-999,0,0.01
2013-10-30,55,44,37,-100,-100,-100,0,0,100,0.00,40.00,0,-999,0,0.01
2013-10-31,55,50,47,-100,-100,-100,0,0,100,0.00,40.00,0,-999,0,0.28
2013-11-1,55,52,48,-100,-100,-100,0,0,100,0.00,40.00,0,-999,0,0.04
2013-11-2,50,47,42,-100,-100,-100,0,0,100,0.00,40.00,0,-999,0,1.54
2013-11-3,53,41,34,-100,-100,-100,0,0,100,0.00,40.00,0,-999,0,0.23
2013-11-4,47,39,31,-100,-100,-100,0,0,100,0.00,40.00,0,-999,0,0.00
2013-11-5,45,42,39,-100,-100,-100,0,0,100,0.00,40.00,0,-999,0,0.16
2013-11-6,51,46,42,-100,-100,-100,0,0,100,0.00,40.00,0,-999,0,0.04
2013-11-7,53,48,45,-100,-100,-100,0,0,100,0.00,40.00,0,-999,0,0.85
2013-11-8,57,48,45,-100,-100,-100,0,0,100,0.00,40.00,0,-999,0,0.11
2013-11-9,50,44,40,-100,-100,-100,0,0,100,0.00,40.00,0,-999,0,0.01
2013-11-10,50,45,40,-100,-100,-100,0,0,100,0.00,40.00,0,-999,0,0.00
2013-11-11,56,47,41,-100,-100,-100,0,0,100,0.00,40.00,0,-999,0,0.00
2013-11-12,59,50,44,-100,-100,-100,0,0,100,0.00,40.00,0,-999,0,0.12
2013-11-13,56,51,48,-100,-100,-100,0,0,100,0.00,40.00,0,-999,0,0.09
2013-11-14,50,46,40,-100,-100,-100,0,0,100,0.00,40.00,0,-999,0,0.01
2013-11-15,45,42,40,-100,-100,-100,0,0,100,0.00,40.00,0,-999,0,0.64
2013-11-16,46,42,40,-100,-100,-100,0,0,100,0.00,40.00,0,-999,0,0.41
2013-11-17,47,42,35,-100,-100,-100,0,0,100,0.00,40.00,0,-999,0,0.17
2013-11-18,46,45,43,-100,-100,-100,0,0,100,0.00,40.00,0,-999,0,1.10
2013-11-19,46,40,31,-100,-100,-100,0,0,100,0.00,40.00,0,-999,0,1.07
2013-11-20,43,30,24,-100,-100,-100,0,0,100,0.00,40.00,0,-999,0,0.04
2013-11-21,42,28,22,-100,-100,-100,0,0,100,0.00,40.00,0,-999,0,0.00
2013-11-22,45,30,23,-100,-100,-100,0,0,100,0.00,40.00,0,-999,0,0.00
2013-11-23,48,33,27,-100,-100,-100,0,0,100,0.00,40.00,0,-999,0,0.00
2013-11-24,49,35,29,-100,-100,-100,0,0,100,0.00,40.00,0,-999,0,0.00
2013-11-25,49,39,32,-100,-100,-100,0,0,100,0.00,40.00,0,-999,0,0.00
2013-11-26,51,39,31,-100,-100,-100,0,0,100,0.00,40.00,0,-999,0,0.00
2013-11-27,57,44,36,-100,-100,-100,0,0,100,0.00,40.00,0,-999,0,0.00
2013-11-28,53,42,34,-100,-100,-100,0,0,100,0.00,40.00,0,-999,0,0.01
2013-11-29,49,46,44,-100,-100,-100,0,0,100,0.00,40.00,0,-999,0,0.07
2013-11-30,47,46,45,-100,-100,-100,0,0,100,0.00,40.00,0,-999,0,0.40
2013-12-1,52,48,43,-100,-100,-100,0,0,100,0.00,40.00,0,-999,0,0.46
2013-12-2,43,36,29,-100,-100,-100,0,0,100,0.00,40.00,0,-999,0,0.27
2013-12-3,37,29,25,-100,-100,-100,0,0,100,0.00,40.00,0,-999,0,0.01
2013-12-4,37,27,21,-100,-100,-100,0,0,100,0.00,40.00,0,-999,0,0.00
2013-12-5,35,26,20,-100,-100,-100,0,0,100,0.00,40.00,0,-999,0,0.00
2013-12-6,30,21,17,-100,-100,-100,0,0,100,0.00,40.00,0,-999,0,0.00
2013-12-7,30,18,11,-100,-100,-100,0,0,100,0.00,40.00,0,-999,0,0.00
2013-12-8,31,22,16,-100,-100,-100,0,0,100,0.00,40.00,0,-999,0,0.00
2013-12-9,31,28,22,-100,-100,-100,0,0,100,0.00,40.00,0,-999,0,0.00
2013-12-10,35,32,29,-100,-100,-100,0,0,100,0.00,40.00,0,-999,0,0.00
2013-12-11,41,34,31,-100,-100,-100,0,0,100,0.00,40.00,0,-999,0,0.00
2013-12-12,42,35,30,-100,-100,-100,0,0,100,0.00,40.00,0,-999,0,0.12
2013-12-13,46,40,37,-100,-100,-100,0,0,100,0.00,40.00,0,-999,0,0.17
2013-12-14,45,42,39,-100,-100,-100,0,0,100,0.00,40.00,0,-999,0,0.01
2013-12-15,52,46,38,-100,-100,-100,0,0,100,0.00,40.00,0,-999,0,0.02
2013-12-16,47,41,35,-100,-100,-100,0,0,100,0.00,40.00,0,-999,0,0.01
2013-12-17,43,38,33,-100,-100,-100,0,0,100,0.00,40.00,0,-999,0,0.00
2013-12-18,44,40,30,-100,-100,-100,0,0,100,0.00,40.00,0,-999,0,0.10
2013-12-19,36,33,28,-100,-100,-100,0,0,100,0.00,40.00,0,-999,0,0.01
2013-12-20,34,33,32,-100,-100,-100,0,0,100,0.00,40.00,0,-999,0,0.32
2013-12-21,39,35,34,-100,-100,-100,0,0,100,0.00,40.00,0,-999,0,0.23
2013-12-22,40,37,35,-100,-100,-100,0,0,100,0.00,40.00,0,-999,0,0.43
2013-12-23,50,46,37,-100,-100,-100,0,0,100,0.00,40.00,0,-999,0,0.58
2013-12-24,49,42,34,-100,-100,-100,0,0,100,0.00,40.00,0,-999,0,0.01
2013-12-25,42,37,31,-100,-100,-100,0,0,100,0.00,40.00,0,-999,0,0.00
2013-12-26,49,41,37,-100,-100,-100,0,0,100,0.00,40.00,0,-999,0,0.08
2013-12-27,47,41,36,-100,-100,-100,0,0,100,0.00,40.00,0,-999,0,0.50
2013-12-28,47,43,38,-100,-100,-100,0,0,100,0.00,40.00,0,-999,0,0.02
2013-12-29,45,40,35,-100,-100,-100,0,0,100,0.00,40.00,0,-999,0,0.01
2013-12-30,47,42,39,-100,-100,-100,0,0,100,0.00,40.00,0,-999,0,0.01
2013-12-31,46,44,43,-100,-100,-100,0,0,100,0.00,40.00,0,-999,0,0.04
2014-1-1,46,42,36,-100,-100,-100,0,0,100,0.00,40.00,0,-999,0,0.01
2014-1-2,47,44,42,-100,-100,-100,0,0,100,0.00,40.00,0,-999,0,1.03